Anson, TX (79501)

00:20 CDT le 26 septembre 2016 (GMT -0500)
Robyn's Nest | | Change Station

Alt. 1650 ft 32.61 °N, 99.81 °W | Updated 32 seconds ago

Overcast
Couvert
60.3 ° F
Paraît 60.3 ° F
N
8.0
Vent Variable Vent de Nord

Aujourd'hui
Haut(e) -- | Bas -- ° F
--% Risque de précip.
Hier
Haut(e) -- | Bas -- ° F
Precip. -- pouce
Pression 30.13 pouce
Visibilité 10.0 Miles terrestres
Nuages Couvert 1000 ft
Point de rosée 57 ° F
Humidité 91%
Précipitations 0.00 pouce
Profondeur de la couche neigeuse Non disponible.
7:30 AM 7:30 PM
Lune descendante, 22% visible
METAR KDYS 260458Z AUTO 35010KT 10SM OVC010 16/13 A3020 RMK AO2 SLP201 T01590132 $
Pression 30.13 pouce
Visibilité 10.0 Miles terrestres
Nuages Couvert 1000 ft
Point de rosée 57 ° F
Humidité 91%
Précipitations 0.00 pouce
Profondeur de la couche neigeuse Non disponible.
7:30 AM 7:30 PM
Lune descendante, 22% visible
METAR KDYS 260458Z AUTO 35010KT 10SM OVC010 16/13 A3020 RMK AO2 SLP201 T01590132 $

10-Day Weather Forecast

Almanac

Astronomie

Sep. 26, 2016 Lever Coucher
Temps réel
Crépuscule civil
Crépuscule nautique
Crépuscule astronomique
Lune
Durée de lumière visible
Longueur du jour
Tomorrow will be .
, % of the Moon is Illuminated

Extrêmes aujourd'hui

State Highs State Lows

Community

WunderPhotos

Upload Photos

1,941,852 Photos téléchargées !

WunderBlog® & News

Nearby

Qualité de l'air

  Qualité de l'air Indice de la qualité de l'air Polluant
Not available.

Épaisseur de neige

Station Depth Altitude

Activité sismique

Ville Distance Mag. Time & Date
Minimum magnitude displayed is 2.5.

Températures des eaux côtières

Lieu Température

Stations

Stations météo à proximité

Emplacement de la station Température Refroidissement éolien Point de rosée Humidité Vent Precip. Alt. Mise à jour Type
                   

Watches & Warnings

There are currently no watches in effect.